createdAt,value
2022-11-19T00:05:02.885Z,26.3
2022-11-19T00:10:41.612Z,25.9
2022-11-19T00:16:08.902Z,25.7
2022-11-19T00:21:31.199Z,25.4
2022-11-19T00:27:09.322Z,25.1
2022-11-19T00:33:02.000Z,24.8
2022-11-19T00:38:23.938Z,24.4
2022-11-19T00:43:47.855Z,24.2
2022-11-19T00:49:25.827Z,23.9
2022-11-19T00:55:03.330Z,23.6
2022-11-19T01:00:25.796Z,23.6
2022-11-19T01:06:04.118Z,24.5
2022-11-19T01:11:26.698Z,26.2
2022-11-19T01:17:03.993Z,26.3
2022-11-19T01:22:42.214Z,25.9
2022-11-19T01:28:09.220Z,25.6
2022-11-19T01:33:31.057Z,25.3
2022-11-19T01:39:08.664Z,25.1
2022-11-19T01:44:46.574Z,24.7
2022-11-19T01:50:08.394Z,24.4
2022-11-19T01:55:46.660Z,24.1
2022-11-19T02:01:24.466Z,23.8
2022-11-19T02:07:02.811Z,23.5
2022-11-19T02:12:25.129Z,23.7
2022-11-19T02:18:02.476Z,24.3
2022-11-19T02:23:44.808Z,26.1
2022-11-19T02:29:22.341Z,26.1
2022-11-19T02:34:43.114Z,25.8
2022-11-19T02:40:21.496Z,25.6
2022-11-19T02:45:43.969Z,25.3
2022-11-19T02:51:05.865Z,25
2022-11-19T02:56:43.510Z,24.7
2022-11-19T03:02:06.747Z,24.4
2022-11-19T03:07:28.780Z,24.1
2022-11-19T03:13:06.459Z,23.8
2022-11-19T03:18:43.651Z,23.4
2022-11-19T03:23:49.491Z,23.6
2022-11-19T03:29:12.194Z,24.6
2022-11-19T03:34:49.408Z,26.1
2022-11-19T03:40:27.904Z,26.2
2022-11-19T03:46:05.159Z,25.9
2022-11-19T03:51:42.869Z,25.6
2022-11-19T03:57:22.107Z,25.4
2022-11-19T04:03:05.707Z,25.2
2022-11-19T04:08:43.706Z,24.9
2022-11-19T04:14:20.068Z,24.6
2022-11-19T04:19:42.735Z,24.3
2022-11-19T04:25:04.984Z,24
2022-11-19T04:30:27.338Z,23.8
2022-11-19T04:35:34.077Z,23.6
2022-11-19T04:41:11.786Z,24.8
2022-11-19T04:46:33.478Z,26.1
2022-11-19T04:51:55.882Z,26.3
2022-11-19T04:57:39.708Z,26
2022-11-19T05:03:19.178Z,25.7
2022-11-19T05:08:25.787Z,25.5
2022-11-19T05:14:04.632Z,24.3
2022-11-19T05:19:45.967Z,25.2
2022-11-19T05:25:24.093Z,26.6
2022-11-19T05:31:09.233Z,26.7
2022-11-19T05:36:51.643Z,26.4
2022-11-19T05:42:29.758Z,26.1
2022-11-19T05:48:07.315Z,25.8
2022-11-19T05:53:45.907Z,25.5
2022-11-19T05:59:24.198Z,24.2
2022-11-19T06:05:02.464Z,25.8
2022-11-19T06:10:39.605Z,26.8
2022-11-19T06:16:22.205Z,26.7
2022-11-19T06:22:01.900Z,26.4
2022-11-19T06:27:24.460Z,26.2
2022-11-19T06:33:02.705Z,26
2022-11-19T06:38:47.244Z,25.8
2022-11-19T06:44:30.505Z,24.3
2022-11-19T06:50:10.056Z,25.9
2022-11-19T06:55:49.418Z,26.9
2022-11-19T07:01:27.533Z,26.8
2022-11-19T07:07:05.787Z,26.4
2022-11-19T07:12:45.636Z,26.2
2022-11-19T07:18:09.357Z,25.9
2022-11-19T07:23:49.141Z,25.6
2022-11-19T07:29:27.700Z,25.3
2022-11-19T07:35:05.036Z,24.9
2022-11-19T07:40:50.740Z,24.6
2022-11-19T07:46:34.596Z,24.2
2022-11-19T07:52:16.974Z,23.9
2022-11-19T07:57:46.373Z,23.9
2022-11-19T08:03:08.975Z,25.7
2022-11-19T08:08:51.390Z,26.4
2022-11-19T08:14:29.668Z,26.3
2022-11-19T08:20:12.170Z,25.9
2022-11-19T08:25:50.127Z,25.6
2022-11-19T08:31:30.895Z,25.4
2022-11-19T08:37:09.554Z,25.1
2022-11-19T08:42:48.058Z,24.8
2022-11-19T08:48:26.049Z,24.5
2022-11-19T08:54:04.114Z,24.3
2022-11-19T08:59:41.836Z,23.9
2022-11-19T09:05:29.765Z,23.8
2022-11-19T09:11:07.900Z,23.8
2022-11-19T09:16:30.893Z,24.9
2022-11-19T09:22:12.889Z,26.4
2022-11-19T09:27:56.298Z,26.4
2022-11-19T09:33:33.776Z,26.1
2022-11-19T09:39:11.991Z,25.8
2022-11-19T09:44:55.996Z,25.6
2022-11-19T09:50:33.181Z,25.3
2022-11-19T09:56:11.481Z,25
2022-11-19T10:01:49.614Z,24.6
2022-11-19T10:07:12.299Z,24.3
2022-11-19T10:12:56.105Z,24
2022-11-19T10:18:24.023Z,23.9
2022-11-19T10:24:03.749Z,23.7
2022-11-19T10:29:41.274Z,23.4
2022-11-19T10:35:19.244Z,23.1
2022-11-19T10:41:02.655Z,22.9
2022-11-19T10:46:43.976Z,22.8
2022-11-19T10:52:25.291Z,22.6
2022-11-19T10:57:52.472Z,22.4
2022-11-19T11:03:17.875Z,22.3
2022-11-19T11:08:57.141Z,22.2
2022-11-19T11:14:35.330Z,22.1
2022-11-19T11:20:14.621Z,21.9
2022-11-19T11:25:56.852Z,21.8
2022-11-19T11:31:35.075Z,21.7
2022-11-19T11:37:07.253Z,21.6
2022-11-19T11:42:50.053Z,21.6
2022-11-19T11:48:27.961Z,21.5
2022-11-19T11:53:56.843Z,21.4
2022-11-19T11:59:19.494Z,21.4
2022-11-19T12:04:39.725Z,21.3
2022-11-19T12:10:23.704Z,21.3
2022-11-19T12:16:07.408Z,21.2
2022-11-19T12:27:07.638Z,21.1
2022-11-19T12:32:44.855Z,21.1
2022-11-19T12:38:22.545Z,21
2022-11-19T12:44:02.019Z,20.9
2022-11-19T12:49:41.744Z,20.9
2022-11-19T12:55:25.103Z,20.9
2022-11-19T13:01:03.497Z,20.8
2022-11-19T13:06:29.228Z,20.8
2022-11-19T13:11:52.332Z,20.7
2022-11-19T13:17:14.813Z,20.7
2022-11-19T13:22:52.321Z,20.7
2022-11-19T13:28:30.309Z,20.6
2022-11-19T13:34:08.471Z,20.6
2022-11-19T13:39:52.172Z,20.6
2022-11-19T13:45:55.535Z,20.6
2022-11-19T13:51:35.443Z,20.6
2022-11-19T13:57:16.547Z,20.6
2022-11-19T14:02:54.533Z,20.6
2022-11-19T14:08:37.080Z,20.6
2022-11-19T14:13:59.350Z,20.6
2022-11-19T14:19:10.988Z,20.6
2022-11-19T14:24:33.752Z,20.7
2022-11-19T14:30:12.323Z,20.7
2022-11-19T14:35:50.812Z,20.7
2022-11-19T14:41:33.358Z,20.6
2022-11-19T14:47:11.008Z,20.7
2022-11-19T14:52:34.559Z,20.8
2022-11-19T14:58:13.161Z,20.7
2022-11-19T15:03:51.686Z,20.7
2022-11-19T15:09:35.929Z,20.7
2022-11-19T15:15:13.037Z,20.7
2022-11-19T15:20:34.891Z,20.7
2022-11-19T15:26:03.431Z,20.7
2022-11-19T15:31:12.271Z,20.7
2022-11-19T15:37:10.080Z,20.7
2022-11-19T15:42:32.848Z,20.7
2022-11-19T15:48:11.028Z,20.7
2022-11-19T15:53:24.344Z,20.7
2022-11-19T15:58:46.286Z,20.6
2022-11-19T16:03:54.629Z,20.7
2022-11-19T16:09:32.711Z,20.6
2022-11-19T16:14:41.447Z,20.6
2022-11-19T16:20:10.188Z,20.6
2022-11-19T16:25:52.628Z,20.6
2022-11-19T16:31:30.761Z,20.6
2022-11-19T16:37:15.646Z,20.6
2022-11-19T16:42:53.571Z,20.7
2022-11-19T16:48:16.649Z,20.5
2022-11-19T16:53:54.389Z,20.5
2022-11-19T16:59:20.639Z,20.5
2022-11-19T17:05:04.350Z,20.4
2022-11-19T17:10:42.563Z,20.4
2022-11-19T17:16:05.043Z,20.4
2022-11-19T17:21:48.772Z,20.3
2022-11-19T17:27:15.799Z,20.3
2022-11-19T17:32:53.644Z,20.2
2022-11-19T17:38:20.319Z,20.2
2022-11-19T17:43:58.517Z,20.1
2022-11-19T17:49:17.904Z,20.1
2022-11-19T17:54:40.766Z,20.1
2022-11-19T18:00:18.388Z,20.1
2022-11-19T18:05:58.743Z,20
2022-11-19T18:11:21.812Z,20
2022-11-19T18:16:14.972Z,19.9
2022-11-19T18:21:54.613Z,19.9
2022-11-19T18:27:33.508Z,19.9
2022-11-19T18:33:00.971Z,19.8
2022-11-19T18:38:25.040Z,19.9
2022-11-19T18:44:10.536Z,19.8
2022-11-19T18:49:50.093Z,19.8
2022-11-19T18:55:30.926Z,19.8
2022-11-19T19:01:17.006Z,19.8
2022-11-19T19:06:30.393Z,19.8
2022-11-19T19:11:41.274Z,19.8
2022-11-19T19:17:20.379Z,19.8
2022-11-19T19:22:48.588Z,19.7
2022-11-19T19:28:35.466Z,19.7
2022-11-19T19:34:03.981Z,19.7
2022-11-19T19:39:44.180Z,19.7
2022-11-19T19:45:28.787Z,19.7
2022-11-19T19:51:08.798Z,19.7
2022-11-19T19:56:48.531Z,19.7
2022-11-19T20:02:13.868Z,19.6
2022-11-19T20:07:53.535Z,19.6
2022-11-19T20:13:36.590Z,19.5
2022-11-19T20:19:05.638Z,19.6
2022-11-19T20:24:45.955Z,19.9
2022-11-19T20:30:26.137Z,21.2
2022-11-19T20:36:04.175Z,23.5
2022-11-19T20:41:26.775Z,24.9
2022-11-19T20:47:11.640Z,25.1
2022-11-19T20:52:53.281Z,25
2022-11-19T20:58:35.507Z,24.8
2022-11-19T21:04:18.107Z,24.5
2022-11-19T21:09:42.051Z,24.3
2022-11-19T21:15:24.013Z,23.4
2022-11-19T21:20:50.704Z,22.5
2022-11-19T21:26:33.262Z,24.7
2022-11-19T21:32:11.661Z,25.7
2022-11-19T21:37:49.650Z,25.8
2022-11-19T21:43:30.417Z,24
2022-11-19T21:49:08.707Z,25.6
2022-11-19T21:54:46.696Z,26.6
2022-11-19T22:00:30.192Z,25.9
2022-11-19T22:06:07.809Z,26.5
2022-11-19T22:11:51.425Z,27.1
2022-11-19T22:16:58.477Z,26.7
2022-11-19T22:22:36.702Z,24.9
2022-11-19T22:28:15.022Z,26.2
2022-11-19T22:33:58.839Z,27.2
2022-11-19T22:39:43.123Z,26.9
2022-11-19T22:44:34.128Z,26.5
2022-11-19T22:49:56.650Z,24.9
2022-11-19T22:55:34.783Z,26.7
2022-11-19T23:00:26.999Z,27.4
2022-11-19T23:06:10.162Z,27
2022-11-19T23:11:32.996Z,26.6
2022-11-19T23:17:11.331Z,24.9
2022-11-19T23:22:51.884Z,26.3
2022-11-19T23:28:29.666Z,27.5
2022-11-19T23:34:13.974Z,27.2
2022-11-19T23:39:52.510Z,26.8
2022-11-19T23:45:19.738Z,26.1
2022-11-19T23:50:57.827Z,25.3
2022-11-19T23:56:36.099Z,27.2
